Time;durP1;ratioP1;P1;durP2;ratioP2;P2;SDS_P1;SDS_P2;PMS_P1;PMS_P2;Temp;Humidity;BMP_temperature;BMP_pressure;BME280_temperature;BME280_humidity;BME280_pressure;Samples;Min_cycle;Max_cycle;Signal;HPM_P1;HPM_P2
2022/10/15 00:00:38;;;;;;;2.95;0.82;;;;;;;;;;5056222;28;20120;-71
2022/10/15 00:03:04;;;;;;;2.45;0.98;;;;;;;;;;5056455;28;20044;-71
2022/10/15 00:05:30;;;;;;;2.22;1.05;;;;;;;;;;5056151;28;20542;-71
2022/10/15 00:07:56;;;;;;;2.33;1.00;;;;;;;;;;5056170;28;20124;-71
2022/10/15 00:10:23;;;;;;;3.90;1.10;;;;;;;;;;5056125;28;20128;-71
2022/10/15 00:12:49;;;;;;;1.75;1.13;;;;;;;;;;5056544;28;20041;-71
2022/10/15 00:15:16;;;;;;;2.47;1.25;;;;;;;;;;5055733;28;20048;-71
2022/10/15 00:17:42;;;;;;;2.03;1.23;;;;;;;;;;5056013;28;20037;-71
2022/10/15 00:20:10;;;;;;;2.30;1.13;;;;;;;;;;5055965;28;20048;-71
2022/10/15 00:22:36;;;;;;;1.80;1.00;;;;;;;;;;5056205;28;20048;-71
2022/10/15 00:25:03;;;;;;;3.13;1.15;;;;;;;;;;5055231;28;20045;-71
2022/10/15 00:27:29;;;;;;;1.95;0.90;;;;;;;;;;5055965;28;20045;-71
2022/10/15 00:29:55;;;;;;;1.73;1.10;;;;;;;;;;5055350;28;20060;-71
2022/10/15 00:32:21;;;;;;;3.33;1.27;;;;;;;;;;5055273;28;20037;-71
2022/10/15 00:34:47;;;;;;;3.40;1.52;;;;;;;;;;5056161;28;20128;-71
2022/10/15 00:37:16;;;;;;;1.35;1.00;;;;;;;;;;5055915;28;20047;-71
2022/10/15 00:39:42;;;;;;;2.92;1.40;;;;;;;;;;5055979;28;20044;-71
2022/10/15 00:42:09;;;;;;;2.97;1.10;;;;;;;;;;5055809;28;20060;-71
2022/10/15 00:44:49;;;;;;;2.42;1.17;;;;;;;;;;5055205;28;20049;-71
2022/10/15 00:47:15;;;;;;;3.72;1.05;;;;;;;;;;5055948;28;20045;-71
2022/10/15 00:49:50;;;;;;;6.30;1.20;;;;;;;;;;5055375;28;20068;-71
2022/10/15 00:52:23;;;;;;;3.72;1.35;;;;;;;;;;5055608;28;20044;-71
2022/10/15 00:54:55;;;;;;;3.83;0.90;;;;;;;;;;5055240;28;20419;-71
2022/10/15 00:57:21;;;;;;;1.83;1.00;;;;;;;;;;5055205;28;20044;-71
2022/10/15 00:59:50;;;;;;;4.15;1.27;;;;;;;;;;5055359;28;20045;-71
2022/10/15 01:02:17;;;;;;;1.63;1.00;;;;;;;;;;5055407;28;20041;-71
2022/10/15 01:04:43;;;;;;;1.48;1.00;;;;;;;;;;5055215;28;20048;-71
2022/10/15 01:07:09;;;;;;;2.90;1.02;;;;;;;;;;5055030;28;20473;-71
2022/10/15 01:09:36;;;;;;;2.50;1.38;;;;;;;;;;5055098;28;20068;-71
2022/10/15 01:12:02;;;;;;;3.58;0.93;;;;;;;;;;5055423;28;20045;-71
2022/10/15 01:14:28;;;;;;;5.60;1.67;;;;;;;;;;5055237;28;20484;-71
2022/10/15 01:16:59;;;;;;;3.40;1.13;;;;;;;;;;5054891;28;20067;-71
2022/10/15 01:19:42;;;;;;;4.60;1.25;;;;;;;;;;5054983;28;20120;-71
2022/10/15 01:22:16;;;;;;;3.05;1.10;;;;;;;;;;5055401;28;20045;-71
2022/10/15 01:24:44;;;;;;;4.25;1.10;;;;;;;;;;5054905;28;20060;-71
2022/10/15 01:27:28;;;;;;;3.60;0.93;;;;;;;;;;5054722;28;20040;-71
2022/10/15 01:30:07;;;;;;;1.90;1.38;;;;;;;;;;5054822;28;20033;-71
2022/10/15 01:32:35;;;;;;;2.13;1.20;;;;;;;;;;5054887;28;20057;-71
2022/10/15 01:35:01;;;;;;;4.38;1.30;;;;;;;;;;5054923;28;20041;-71
2022/10/15 01:37:37;;;;;;;5.68;1.20;;;;;;;;;;5054008;28;20045;-71
2022/10/15 01:40:07;;;;;;;3.60;1.10;;;;;;;;;;5054992;28;20049;-71
2022/10/15 01:42:53;;;;;;;4.55;1.20;;;;;;;;;;5055131;28;20041;-71
2022/10/15 01:45:24;;;;;;;2.03;1.20;;;;;;;;;;5054521;28;20052;-71
2022/10/15 01:47:53;;;;;;;3.72;1.17;;;;;;;;;;5054182;28;20040;-71
2022/10/15 01:50:22;;;;;;;2.50;1.27;;;;;;;;;;5054767;28;20087;-71
2022/10/15 01:52:48;;;;;;;2.90;1.10;;;;;;;;;;5054770;28;20037;-71
2022/10/15 01:55:15;;;;;;;3.67;1.38;;;;;;;;;;5054370;28;20128;-71
2022/10/15 01:57:43;;;;;;;2.25;1.10;;;;;;;;;;5054928;28;20516;-71
2022/10/15 02:00:10;;;;;;;3.88;1.30;;;;;;;;;;5054615;28;20063;-71
2022/10/15 02:02:36;;;;;;;3.55;1.23;;;;;;;;;;5055215;28;20082;-71
2022/10/15 02:05:02;;;;;;;5.22;1.48;;;;;;;;;;5054230;28;20057;-71
2022/10/15 02:07:49;;;;;;;2.92;1.10;;;;;;;;;;5054565;28;20079;-71
2022/10/15 02:10:25;;;;;;;5.63;1.75;;;;;;;;;;5054330;28;20128;-71
2022/10/15 02:12:57;;;;;;;4.47;1.63;;;;;;;;;;5054968;28;20048;-71
2022/10/15 02:15:23;;;;;;;4.82;1.58;;;;;;;;;;5054512;28;20069;-71
2022/10/15 02:18:05;;;;;;;3.78;1.10;;;;;;;;;;5054457;28;20065;-71
2022/10/15 02:20:40;;;;;;;2.45;1.20;;;;;;;;;;5054713;28;20033;-71
2022/10/15 02:23:15;;;;;;;3.05;1.10;;;;;;;;;;5054451;28;20039;-71
2022/10/15 02:25:41;;;;;;;4.25;1.08;;;;;;;;;;5054393;28;20057;-71
2022/10/15 02:28:08;;;;;;;5.68;1.30;;;;;;;;;;5053957;28;20041;-71
2022/10/15 02:30:36;;;;;;;3.85;1.45;;;;;;;;;;5054596;28;20472;-71
2022/10/15 02:33:03;;;;;;;2.08;1.02;;;;;;;;;;5054425;28;20084;-71
2022/10/15 02:35:32;;;;;;;4.78;1.30;;;;;;;;;;5054003;28;20037;-71
2022/10/15 02:38:01;;;;;;;3.80;1.35;;;;;;;;;;5053721;28;20040;-71
2022/10/15 02:40:29;;;;;;;4.47;1.15;;;;;;;;;;5053934;28;20043;-71
2022/10/15 02:42:55;;;;;;;2.95;1.13;;;;;;;;;;5054105;28;20048;-71
2022/10/15 02:45:21;;;;;;;2.45;1.13;;;;;;;;;;5053831;28;20131;-71
2022/10/15 02:47:47;;;;;;;2.72;1.08;;;;;;;;;;5054204;28;20041;-71
2022/10/15 02:50:13;;;;;;;3.67;1.40;;;;;;;;;;5057324;28;20041;-71
2022/10/15 02:52:40;;;;;;;3.63;1.02;;;;;;;;;;5057671;28;20049;-71
2022/10/15 02:55:06;;;;;;;4.60;1.30;;;;;;;;;;5057232;28;20369;-71
2022/10/15 02:57:32;;;;;;;1.30;1.17;;;;;;;;;;5057502;28;20037;-70
2022/10/15 02:59:58;;;;;;;4.35;1.80;;;;;;;;;;5057059;28;20063;-71
2022/10/15 03:02:24;;;;;;;1.90;1.20;;;;;;;;;;5057107;28;20090;-71
2022/10/15 03:04:50;;;;;;;2.53;1.35;;;;;;;;;;5057339;28;20148;-71
2022/10/15 03:07:16;;;;;;;2.70;1.40;;;;;;;;;;5057847;28;20090;-71
2022/10/15 03:09:42;;;;;;;3.47;1.40;;;;;;;;;;5057288;28;20033;-71
2022/10/15 03:12:09;;;;;;;2.47;1.15;;;;;;;;;;5057494;28;20045;-71
2022/10/15 03:14:35;;;;;;;2.90;1.50;;;;;;;;;;5057162;28;20059;-71
2022/10/15 03:17:01;;;;;;;2.42;1.20;;;;;;;;;;5057401;28;20045;-71
2022/10/15 03:19:27;;;;;;;2.28;1.40;;;;;;;;;;5056786;28;20400;-71
2022/10/15 03:21:53;;;;;;;2.47;1.30;;;;;;;;;;5057065;28;20044;-71
2022/10/15 03:24:19;;;;;;;1.95;1.25;;;;;;;;;;5056696;28;20458;-71
2022/10/15 03:26:45;;;;;;;2.50;1.27;;;;;;;;;;5057017;28;20041;-71
2022/10/15 03:29:11;;;;;;;3.47;1.40;;;;;;;;;;5056572;28;20040;-71
2022/10/15 03:31:37;;;;;;;2.35;1.20;;;;;;;;;;5056634;28;20033;-71
2022/10/15 03:34:03;;;;;;;5.47;1.38;;;;;;;;;;5057130;28;20061;-71
2022/10/15 03:36:30;;;;;;;5.15;1.20;;;;;;;;;;5057632;28;20067;-71
2022/10/15 03:38:56;;;;;;;2.30;1.10;;;;;;;;;;5056712;28;20037;-71
2022/10/15 03:41:22;;;;;;;1.95;1.17;;;;;;;;;;5056965;28;20094;-71
2022/10/15 03:43:48;;;;;;;3.53;1.17;;;;;;;;;;5056450;28;20052;-71
2022/10/15 03:46:15;;;;;;;2.47;1.23;;;;;;;;;;5057465;28;20488;-71
2022/10/15 03:48:41;;;;;;;2.28;1.13;;;;;;;;;;5056491;28;20078;-71
2022/10/15 03:51:07;;;;;;;3.08;1.20;;;;;;;;;;5056516;28;20383;-71
2022/10/15 03:53:33;;;;;;;1.35;1.00;;;;;;;;;;5056836;28;20064;-71
2022/10/15 03:56:06;;;;;;;2.70;1.08;;;;;;;;;;5056688;28;20056;-71
2022/10/15 03:58:32;;;;;;;1.42;1.15;;;;;;;;;;5056566;28;20064;-71
2022/10/15 04:00:58;;;;;;;2.78;1.30;;;;;;;;;;5055720;28;20361;-71
2022/10/15 04:03:24;;;;;;;2.38;1.30;;;;;;;;;;5056512;28;20538;-71
2022/10/15 04:05:51;;;;;;;2.17;1.52;;;;;;;;;;5056723;28;20122;-71
2022/10/15 04:08:17;;;;;;;4.05;1.40;;;;;;;;;;5056494;28;20041;-71
2022/10/15 04:10:43;;;;;;;1.92;1.30;;;;;;;;;;5056723;28;20495;-71
2022/10/15 04:13:10;;;;;;;2.72;1.30;;;;;;;;;;5056157;28;20530;-71
2022/10/15 04:15:38;;;;;;;3.10;1.20;;;;;;;;;;5056373;28;20040;-70
2022/10/15 04:18:04;;;;;;;6.75;1.40;;;;;;;;;;5055990;28;20391;-71
2022/10/15 04:20:31;;;;;;;2.35;1.20;;;;;;;;;;5056271;28;20045;-70
2022/10/15 04:22:57;;;;;;;4.90;1.35;;;;;;;;;;5056829;28;20045;-70
2022/10/15 04:25:23;;;;;;;3.08;1.58;;;;;;;;;;5056076;28;20048;-71
2022/10/15 04:27:49;;;;;;;3.45;1.20;;;;;;;;;;5055993;28;20045;-71
2022/10/15 04:30:15;;;;;;;3.83;1.10;;;;;;;;;;5056038;28;20049;-71
2022/10/15 04:32:41;;;;;;;5.57;1.50;;;;;;;;;;5056077;28;20057;-71
2022/10/15 04:35:07;;;;;;;2.85;1.13;;;;;;;;;;5055803;28;20530;-71
2022/10/15 04:37:33;;;;;;;3.38;1.48;;;;;;;;;;5055640;28;20037;-70
2022/10/15 04:40:00;;;;;;;1.98;1.20;;;;;;;;;;5055352;28;20040;-71
2022/10/15 04:42:28;;;;;;;3.30;1.33;;;;;;;;;;5055802;28;20496;-71
2022/10/15 04:44:54;;;;;;;1.48;1.13;;;;;;;;;;5055229;28;20045;-71
2022/10/15 04:47:20;;;;;;;3.08;1.05;;;;;;;;;;5055485;28;20526;-71
2022/10/15 04:49:46;;;;;;;2.13;1.30;;;;;;;;;;5055158;28;20075;-71
2022/10/15 04:52:12;;;;;;;6.53;1.38;;;;;;;;;;5055071;28;20511;-71
2022/10/15 04:54:39;;;;;;;1.60;1.13;;;;;;;;;;5055262;28;20052;-71
2022/10/15 04:57:05;;;;;;;4.05;1.30;;;;;;;;;;5055368;28;20068;-71
2022/10/15 04:59:31;;;;;;;4.05;1.40;;;;;;;;;;5054918;28;20039;-71
2022/10/15 05:01:57;;;;;;;2.10;1.42;;;;;;;;;;5054875;28;20059;-71
2022/10/15 05:04:24;;;;;;;3.88;1.15;;;;;;;;;;5054768;28;20052;-71
2022/10/15 05:06:50;;;;;;;6.40;1.30;;;;;;;;;;5054814;28;20099;-71
2022/10/15 05:09:16;;;;;;;3.70;1.33;;;;;;;;;;5054715;28;20047;-71
2022/10/15 05:11:42;;;;;;;4.10;1.60;;;;;;;;;;5054716;28;20123;-71
2022/10/15 05:14:08;;;;;;;4.45;1.58;;;;;;;;;;5055151;28;20048;-71
2022/10/15 05:16:34;;;;;;;4.10;2.60;;;;;;;;;;5054635;28;20041;-71
2022/10/15 05:19:02;;;;;;;7.00;1.52;;;;;;;;;;5085176;28;20048;-71
2022/10/15 05:21:28;;;;;;;6.30;1.58;;;;;;;;;;5093951;28;20036;-70
2022/10/15 05:23:54;;;;;;;5.15;1.50;;;;;;;;;;5094935;28;20044;-71
2022/10/15 05:26:22;;;;;;;2.05;1.35;;;;;;;;;;5095001;28;20490;-71
2022/10/15 05:28:48;;;;;;;2.97;1.38;;;;;;;;;;5092652;28;20118;-71
2022/10/15 05:31:17;;;;;;;2.28;1.38;;;;;;;;;;5094260;28;20498;-70
2022/10/15 05:33:43;;;;;;;3.95;1.45;;;;;;;;;;5094776;28;20048;-73
2022/10/15 05:36:28;;;;;;;4.80;1.60;;;;;;;;;;5095176;28;20047;-72
2022/10/15 05:38:59;;;;;;;2.95;1.10;;;;;;;;;;5093425;28;20064;-72
2022/10/15 05:41:26;;;;;;;3.33;1.30;;;;;;;;;;5092114;28;20085;-72
2022/10/15 05:43:53;;;;;;;4.13;1.30;;;;;;;;;;5088469;28;20044;-72
2022/10/15 05:46:19;;;;;;;3.35;1.40;;;;;;;;;;5073953;28;20132;-72
2022/10/15 05:48:49;;;;;;;5.07;1.60;;;;;;;;;;5074507;28;20086;-72
2022/10/15 05:51:16;;;;;;;3.30;1.40;;;;;;;;;;5073747;28;20040;-72
2022/10/15 05:53:42;;;;;;;4.03;1.70;;;;;;;;;;5077467;28;20039;-72
2022/10/15 05:56:09;;;;;;;5.15;1.40;;;;;;;;;;5075539;28;20036;-75
2022/10/15 05:58:36;;;;;;;3.97;1.38;;;;;;;;;;5073744;28;20060;-73
2022/10/15 06:01:03;;;;;;;3.95;1.42;;;;;;;;;;5079386;28;20051;-73
2022/10/15 06:03:29;;;;;;;2.78;1.40;;;;;;;;;;5075165;28;20044;-73
2022/10/15 06:05:56;;;;;;;3.75;1.48;;;;;;;;;;5074386;28;20051;-73
2022/10/15 06:08:22;;;;;;;5.85;1.60;;;;;;;;;;5083747;28;20032;-75
2022/10/15 06:10:48;;;;;;;2.40;1.60;;;;;;;;;;5094988;28;20040;-76
2022/10/15 06:13:15;;;;;;;2.08;1.30;;;;;;;;;;5091322;28;20040;-74
2022/10/15 06:15:44;;;;;;;7.40;1.30;;;;;;;;;;5094040;28;20056;-74
2022/10/15 06:18:15;;;;;;;3.00;1.20;;;;;;;;;;5094420;28;20042;-74
2022/10/15 06:20:42;;;;;;;1.92;1.60;;;;;;;;;;5094123;28;20044;-74
2022/10/15 06:23:09;;;;;;;4.47;1.73;;;;;;;;;;5095875;28;20040;-74
2022/10/15 06:25:35;;;;;;;6.95;2.13;;;;;;;;;;5098594;28;20079;-74
2022/10/15 06:28:05;;;;;;;4.82;3.40;;;;;;;;;;5098984;28;20050;-74
2022/10/15 06:30:31;;;;;;;3.10;2.20;;;;;;;;;;5098194;28;20079;-74
2022/10/15 06:32:57;;;;;;;2.75;1.63;;;;;;;;;;5096386;28;20522;-77
2022/10/15 06:35:24;;;;;;;5.75;1.63;;;;;;;;;;5096460;28;20039;-74
2022/10/15 06:37:50;;;;;;;2.75;1.40;;;;;;;;;;5096401;28;20032;-74
2022/10/15 06:40:16;;;;;;;3.78;1.50;;;;;;;;;;5096354;28;20044;-74
2022/10/15 06:42:43;;;;;;;2.47;1.30;;;;;;;;;;5095916;28;20047;-75
2022/10/15 06:45:10;;;;;;;3.97;1.73;;;;;;;;;;5096157;28;20097;-76
2022/10/15 06:47:36;;;;;;;3.50;1.90;;;;;;;;;;5098011;28;20084;-75
2022/10/15 06:50:04;;;;;;;3.53;1.55;;;;;;;;;;5098092;28;20439;-76
2022/10/15 06:52:30;;;;;;;1.63;1.38;;;;;;;;;;5097165;28;20119;-75
2022/10/15 06:54:57;;;;;;;4.93;1.77;;;;;;;;;;5098254;28;20112;-75
2022/10/15 06:57:24;;;;;;;3.60;1.75;;;;;;;;;;5098394;28;20359;-77
2022/10/15 06:59:51;;;;;;;3.00;1.60;;;;;;;;;;5097948;28;20046;-76
2022/10/15 07:02:18;;;;;;;4.78;1.98;;;;;;;;;;5098640;28;20047;-76
2022/10/15 07:04:44;;;;;;;6.40;2.63;;;;;;;;;;5097968;28;20494;-77
2022/10/15 07:07:10;;;;;;;5.05;2.75;;;;;;;;;;5097940;28;20043;-76
2022/10/15 07:09:36;;;;;;;6.32;2.08;;;;;;;;;;5097992;28;20038;-76
2022/10/15 07:12:03;;;;;;;10.00;2.53;;;;;;;;;;5097850;28;20051;-76
2022/10/15 07:14:29;;;;;;;6.20;2.20;;;;;;;;;;5097864;28;20040;-76
2022/10/15 07:16:55;;;;;;;2.90;1.92;;;;;;;;;;5097391;28;20051;-76
2022/10/15 07:19:22;;;;;;;4.30;1.90;;;;;;;;;;5097608;28;20510;-76
2022/10/15 07:21:48;;;;;;;6.82;2.20;;;;;;;;;;5097669;28;20501;-76
2022/10/15 07:24:14;;;;;;;3.67;2.03;;;;;;;;;;5097894;28;20044;-76
2022/10/15 07:26:40;;;;;;;8.18;2.25;;;;;;;;;;5097647;28;20040;-76
2022/10/15 07:29:06;;;;;;;4.40;1.63;;;;;;;;;;5097499;28;20061;-76
2022/10/15 07:31:32;;;;;;;3.40;1.58;;;;;;;;;;5097216;28;20549;-76
2022/10/15 07:33:58;;;;;;;2.17;1.67;;;;;;;;;;5096830;28;20059;-76
2022/10/15 07:36:25;;;;;;;5.13;2.00;;;;;;;;;;5096513;28;20051;-76
2022/10/15 07:38:51;;;;;;;3.50;1.83;;;;;;;;;;5096706;28;20074;-75
2022/10/15 07:41:17;;;;;;;2.22;1.70;;;;;;;;;;5096930;28;20060;-75
2022/10/15 07:43:45;;;;;;;1.70;1.60;;;;;;;;;;5096584;28;20044;-75
2022/10/15 07:46:11;;;;;;;3.47;1.90;;;;;;;;;;5096793;28;20101;-76
2022/10/15 07:48:37;;;;;;;7.03;1.95;;;;;;;;;;5096824;28;20185;-76
2022/10/15 07:51:05;;;;;;;7.50;1.80;;;;;;;;;;5096514;28;20040;-76
2022/10/15 07:53:31;;;;;;;6.20;1.67;;;;;;;;;;5097024;28;20529;-76
2022/10/15 07:55:58;;;;;;;3.47;1.60;;;;;;;;;;5096934;28;20499;-76
2022/10/15 07:58:25;;;;;;;2.45;1.60;;;;;;;;;;5096486;28;20040;-76
2022/10/15 08:00:51;;;;;;;4.70;1.63;;;;;;;;;;5096354;28;20036;-76
2022/10/15 08:03:17;;;;;;;2.53;1.55;;;;;;;;;;5096864;28;20065;-76
2022/10/15 08:05:43;;;;;;;4.03;1.55;;;;;;;;;;5096177;28;20079;-75
2022/10/15 08:08:09;;;;;;;4.78;1.88;;;;;;;;;;5096158;28;20123;-76
2022/10/15 08:10:35;;;;;;;1.80;1.70;;;;;;;;;;5096710;28;20032;-74
2022/10/15 08:13:02;;;;;;;8.13;2.05;;;;;;;;;;5096450;28;20036;-77
2022/10/15 08:15:28;;;;;;;2.22;1.85;;;;;;;;;;5096890;28;20048;-76
2022/10/15 08:17:54;;;;;;;6.68;1.73;;;;;;;;;;5096325;28;20517;-76
2022/10/15 08:20:20;;;;;;;2.90;1.77;;;;;;;;;;5096233;28;20039;-75
2022/10/15 08:22:46;;;;;;;1.70;1.60;;;;;;;;;;5096814;28;20119;-75
2022/10/15 08:25:12;;;;;;;11.50;2.08;;;;;;;;;;5096083;28;20039;-76
2022/10/15 08:27:38;;;;;;;2.13;1.60;;;;;;;;;;5096108;28;20046;-74
2022/10/15 08:30:04;;;;;;;3.60;1.83;;;;;;;;;;5095635;28;20036;-76
2022/10/15 08:32:31;;;;;;;2.58;1.67;;;;;;;;;;5096182;28;20056;-74
2022/10/15 08:34:57;;;;;;;4.68;1.67;;;;;;;;;;5096327;28;20046;-74
2022/10/15 08:37:23;;;;;;;3.65;1.50;;;;;;;;;;5096471;28;20040;-76
2022/10/15 08:39:49;;;;;;;1.42;1.10;;;;;;;;;;5096186;28;20074;-74
2022/10/15 08:42:25;;;;;;;2.58;1.25;;;;;;;;;;5096119;28;20044;-74
2022/10/15 08:44:56;;;;;;;5.85;1.50;;;;;;;;;;5096018;28;20051;-74
2022/10/15 08:47:22;;;;;;;4.50;1.35;;;;;;;;;;5095977;28;20157;-76
2022/10/15 08:49:49;;;;;;;2.00;1.48;;;;;;;;;;5096114;28;20036;-74
2022/10/15 08:52:25;;;;;;;6.55;1.45;;;;;;;;;;5095933;28;20044;-74
2022/10/15 08:54:52;;;;;;;5.13;1.60;;;;;;;;;;5095548;28;20510;-74
2022/10/15 08:57:18;;;;;;;4.15;1.33;;;;;;;;;;5095835;28;20147;-74
2022/10/15 08:59:57;;;;;;;2.10;1.20;;;;;;;;;;5095800;28;20126;-74
2022/10/15 09:02:25;;;;;;;1.23;1.08;;;;;;;;;;5096095;28;20047;-74
2022/10/15 09:05:10;;;;;;;3.25;1.38;;;;;;;;;;5095316;28;20048;-75
2022/10/15 09:07:41;;;;;;;1.38;1.27;;;;;;;;;;5095933;28;20034;-74
2022/10/15 09:10:10;;;;;;;2.70;1.90;;;;;;;;;;5095685;28;20044;-74
2022/10/15 09:12:55;;;;;;;2.45;1.40;;;;;;;;;;5095912;28;20040;-75
2022/10/15 09:15:22;;;;;;;4.40;1.73;;;;;;;;;;5095221;28;20036;-74
2022/10/15 09:17:50;;;;;;;3.28;1.75;;;;;;;;;;5095204;28;20050;-74
2022/10/15 09:20:18;;;;;;;1.77;1.40;;;;;;;;;;5095435;28;20036;-75
2022/10/15 09:22:45;;;;;;;2.13;1.10;;;;;;;;;;5096007;28;20036;-74
2022/10/15 09:25:15;;;;;;;2.17;1.30;;;;;;;;;;5095302;28;20138;-75
2022/10/15 09:27:42;;;;;;;1.90;1.30;;;;;;;;;;5095302;28;20150;-75
2022/10/15 09:30:26;;;;;;;2.38;1.80;;;;;;;;;;5094985;28;20356;-75
2022/10/15 09:32:59;;;;;;;2.88;1.50;;;;;;;;;;5095491;28;20059;-75
2022/10/15 09:35:28;;;;;;;3.08;1.35;;;;;;;;;;5095190;28;20064;-75
2022/10/15 09:37:59;;;;;;;1.38;1.23;;;;;;;;;;5093862;28;20098;-75
2022/10/15 09:40:37;;;;;;;1.25;1.10;;;;;;;;;;5095199;28;20119;-75
2022/10/15 09:43:04;;;;;;;1.10;1.00;;;;;;;;;;5094943;28;20048;-75
2022/10/15 09:45:30;;;;;;;1.70;1.10;;;;;;;;;;5095271;28;20047;-75
2022/10/15 09:47:59;;;;;;;2.28;1.35;;;;;;;;;;5094782;28;20156;-75
2022/10/15 09:50:29;;;;;;;4.28;1.25;;;;;;;;;;5094936;28;20118;-75
2022/10/15 09:53:04;;;;;;;3.78;1.10;;;;;;;;;;5094833;28;20048;-75
2022/10/15 09:55:36;;;;;;;1.58;1.25;;;;;;;;;;5095190;28;20043;-75
2022/10/15 09:58:06;;;;;;;1.50;1.40;;;;;;;;;;5094187;28;20036;-75
2022/10/15 10:00:50;;;;;;;2.42;1.40;;;;;;;;;;5094821;28;20032;-75
2022/10/15 10:03:17;;;;;;;2.45;1.42;;;;;;;;;;5094674;28;20119;-75
2022/10/15 10:05:44;;;;;;;1.65;1.30;;;;;;;;;;5095066;28;20135;-75
2022/10/15 10:08:20;;;;;;;1.70;1.15;;;;;;;;;;5094838;28;20048;-75
2022/10/15 10:10:57;;;;;;;2.50;1.40;;;;;;;;;;5094713;28;20070;-75
2022/10/15 10:13:34;;;;;;;2.38;1.92;;;;;;;;;;5095068;28;20044;-75
2022/10/15 10:16:10;;;;;;;3.03;1.88;;;;;;;;;;5095123;28;20071;-75
2022/10/15 10:18:36;;;;;;;3.38;1.50;;;;;;;;;;5094707;28;20039;-75
2022/10/15 10:21:04;;;;;;;3.17;1.73;;;;;;;;;;5094695;28;20089;-75
2022/10/15 10:23:33;;;;;;;3.55;1.90;;;;;;;;;;5095062;28;20044;-75
2022/10/15 10:26:01;;;;;;;2.13;1.40;;;;;;;;;;5094504;28;20093;-75
2022/10/15 10:28:31;;;;;;;1.92;1.73;;;;;;;;;;5094875;28;20047;-75
2022/10/15 10:30:59;;;;;;;3.97;2.40;;;;;;;;;;5094411;28;20043;-75
2022/10/15 10:33:28;;;;;;;2.97;1.80;;;;;;;;;;5094482;28;20055;-75
2022/10/15 10:35:54;;;;;;;3.78;1.90;;;;;;;;;;5095134;28;20137;-75
2022/10/15 10:38:22;;;;;;;3.90;1.95;;;;;;;;;;5094515;28;20051;-75
2022/10/15 10:40:57;;;;;;;5.85;2.08;;;;;;;;;;5095091;28;20130;-75
2022/10/15 10:43:25;;;;;;;5.70;2.28;;;;;;;;;;5094603;28;20036;-75
2022/10/15 10:45:52;;;;;;;2.72;1.42;;;;;;;;;;5094993;28;20040;-75
2022/10/15 10:48:20;;;;;;;3.75;1.85;;;;;;;;;;5094449;28;20032;-75
2022/10/15 10:50:46;;;;;;;7.18;2.10;;;;;;;;;;5095007;28;20032;-75
2022/10/15 10:53:25;;;;;;;1.80;1.63;;;;;;;;;;5095041;28;20040;-75
2022/10/15 10:55:52;;;;;;;4.85;2.17;;;;;;;;;;5094337;28;20039;-75
2022/10/15 10:58:19;;;;;;;3.17;1.92;;;;;;;;;;5093932;28;20040;-75
2022/10/15 11:00:47;;;;;;;3.10;1.70;;;;;;;;;;5094381;28;20074;-75
2022/10/15 11:03:16;;;;;;;5.10;2.28;;;;;;;;;;5094890;28;20032;-75
2022/10/15 11:05:43;;;;;;;4.68;2.60;;;;;;;;;;5094248;28;20044;-75
2022/10/15 11:08:17;;;;;;;4.57;2.13;;;;;;;;;;5094265;28;20068;-75
2022/10/15 11:10:50;;;;;;;4.18;2.20;;;;;;;;;;5096859;28;20044;-75
2022/10/15 11:13:22;;;;;;;4.05;2.00;;;;;;;;;;5097715;28;20047;-75
2022/10/15 11:15:57;;;;;;;3.25;2.00;;;;;;;;;;5097849;28;20167;-75
2022/10/15 11:18:31;;;;;;;3.55;1.85;;;;;;;;;;5097973;28;20036;-75
2022/10/15 11:21:13;;;;;;;2.80;2.03;;;;;;;;;;5097590;28;20131;-75
2022/10/15 11:23:45;;;;;;;3.22;1.80;;;;;;;;;;5098063;28;20040;-75
2022/10/15 11:26:29;;;;;;;2.47;1.80;;;;;;;;;;5097320;28;20510;-75
2022/10/15 11:29:05;;;;;;;3.50;1.55;;;;;;;;;;5097136;28;20040;-75
2022/10/15 11:31:43;;;;;;;2.65;1.70;;;;;;;;;;5098332;28;20040;-75
2022/10/15 11:34:12;;;;;;;3.25;1.55;;;;;;;;;;5097451;28;20087;-75
2022/10/15 11:36:50;;;;;;;1.98;1.80;;;;;;;;;;5097483;28;20395;-75
2022/10/15 11:39:32;;;;;;;1.85;1.70;;;;;;;;;;5097278;28;20036;-75
2022/10/15 11:41:58;;;;;;;2.72;2.00;;;;;;;;;;5097330;28;20061;-75
2022/10/15 11:44:30;;;;;;;1.80;1.70;;;;;;;;;;5097183;28;20564;-75
2022/10/15 11:47:05;;;;;;;2.30;1.88;;;;;;;;;;5097212;28;20533;-75
2022/10/15 11:49:47;;;;;;;3.60;1.73;;;;;;;;;;5097325;28;20044;-75
2022/10/15 11:52:32;;;;;;;3.40;1.98;;;;;;;;;;5097391;28;20036;-75
2022/10/15 11:55:07;;;;;;;2.65;1.50;;;;;;;;;;5097168;28;20040;-75
2022/10/15 11:57:35;;;;;;;3.67;2.10;;;;;;;;;;5097037;28;20047;-75
2022/10/15 12:00:05;;;;;;;4.38;1.88;;;;;;;;;;5096894;28;20047;-75
2022/10/15 12:02:36;;;;;;;4.05;1.75;;;;;;;;;;5096192;28;20112;-73
2022/10/15 12:05:18;;;;;;;2.53;1.38;;;;;;;;;;5081298;28;20051;-76
2022/10/15 12:07:45;;;;;;;1.65;1.55;;;;;;;;;;5074303;28;20087;-75
2022/10/15 12:10:11;;;;;;;2.92;1.85;;;;;;;;;;5075761;28;20395;-74
2022/10/15 12:12:49;;;;;;;2.05;1.60;;;;;;;;;;5082009;28;20051;-75
2022/10/15 12:15:20;;;;;;;1.58;1.35;;;;;;;;;;5087324;28;20043;-76
2022/10/15 12:17:52;;;;;;;3.28;1.50;;;;;;;;;;5072658;28;20106;-75
2022/10/15 12:20:20;;;;;;;3.28;1.48;;;;;;;;;;5077640;28;20597;-77
2022/10/15 12:22:46;;;;;;;3.83;2.03;;;;;;;;;;5079320;28;20526;-72
2022/10/15 12:25:30;;;;;;;1.95;1.63;;;;;;;;;;5083439;28;20072;-68
2022/10/15 12:28:23;;;;;;;3.38;1.65;;;;;;;;;;5074240;28;20526;-72
2022/10/15 12:30:54;;;;;;;2.55;1.58;;;;;;;;;;5071677;28;20044;-75
2022/10/15 12:33:24;;;;;;;3.88;2.10;;;;;;;;;;5078093;28;20063;-75
2022/10/15 12:35:55;;;;;;;3.70;1.63;;;;;;;;;;5072722;28;20048;-75
2022/10/15 12:38:27;;;;;;;2.10;1.17;;;;;;;;;;5091030;28;20039;-72
2022/10/15 12:40:58;;;;;;;1.80;1.35;;;;;;;;;;5093811;28;20044;-70
2022/10/15 12:43:24;;;;;;;3.30;1.52;;;;;;;;;;5093456;28;20075;-77
2022/10/15 12:45:55;;;;;;;1.30;1.20;;;;;;;;;;5086640;28;20052;-75
2022/10/15 12:48:28;;;;;;;3.45;1.42;;;;;;;;;;5078849;28;20048;-76
2022/10/15 12:51:15;;;;;;;1.33;1.23;;;;;;;;;;5082254;28;20036;-75
2022/10/15 12:53:44;;;;;;;2.83;1.30;;;;;;;;;;5087965;28;20048;-75
2022/10/15 12:56:10;;;;;;;1.92;1.58;;;;;;;;;;5095436;28;20040;-75
2022/10/15 12:58:36;;;;;;;3.35;2.13;;;;;;;;;;5094511;28;20035;-74
2022/10/15 13:01:26;;;;;;;2.67;2.35;;;;;;;;;;5085115;28;20148;-75
2022/10/15 13:03:53;;;;;;;3.72;2.42;;;;;;;;;;5087645;28;20051;-75
2022/10/15 13:06:22;;;;;;;6.30;3.85;;;;;;;;;;5074033;28;20044;-74
2022/10/15 13:09:03;;;;;;;5.93;3.33;;;;;;;;;;5074129;28;20588;-74
2022/10/15 13:11:29;;;;;;;6.47;4.00;;;;;;;;;;5089314;28;20074;-74
2022/10/15 13:13:58;;;;;;;7.18;4.28;;;;;;;;;;5078576;28;20044;-73
2022/10/15 13:16:24;;;;;;;5.22;3.97;;;;;;;;;;5091157;28;20051;-74
2022/10/15 13:18:51;;;;;;;5.47;4.70;;;;;;;;;;5092068;28;20040;-74
2022/10/15 13:21:18;;;;;;;5.82;5.20;;;;;;;;;;5074635;28;20090;-74
2022/10/15 13:23:45;;;;;;;6.88;5.20;;;;;;;;;;5095129;28;20040;-74
2022/10/15 13:26:11;;;;;;;6.95;5.15;;;;;;;;;;5094945;28;20106;-74
2022/10/15 13:28:40;;;;;;;7.60;5.72;;;;;;;;;;5094659;28;20085;-74
2022/10/15 13:31:08;;;;;;;6.05;5.20;;;;;;;;;;5094944;28;20032;-73
2022/10/15 13:33:39;;;;;;;10.05;6.00;;;;;;;;;;5081066;28;20056;-73
2022/10/15 13:36:06;;;;;;;8.82;5.57;;;;;;;;;;5095535;28;20101;-74
2022/10/15 13:38:33;;;;;;;8.15;5.75;;;;;;;;;;5090510;28;20377;-75
2022/10/15 13:40:59;;;;;;;8.65;5.45;;;;;;;;;;5071849;28;20491;-75
2022/10/15 13:43:26;;;;;;;9.10;5.70;;;;;;;;;;5083445;28;20066;-73
2022/10/15 13:45:57;;;;;;;7.18;5.20;;;;;;;;;;5068218;28;20044;-74
2022/10/15 13:48:27;;;;;;;8.65;5.25;;;;;;;;;;5073184;28;20487;-74
2022/10/15 13:51:04;;;;;;;7.82;5.65;;;;;;;;;;5073424;28;20036;-75
2022/10/15 13:53:34;;;;;;;7.65;5.30;;;;;;;;;;5073946;28;20049;-74
2022/10/15 13:56:02;;;;;;;6.72;5.72;;;;;;;;;;5074328;28;20541;-74
2022/10/15 13:58:33;;;;;;;7.70;6.05;;;;;;;;;;5080514;28;20032;-74
2022/10/15 14:01:09;;;;;;;11.15;5.13;;;;;;;;;;5072659;28;20048;-75
2022/10/15 14:03:36;;;;;;;9.40;5.72;;;;;;;;;;5092911;28;20044;-74
2022/10/15 14:06:16;;;;;;;10.50;5.70;;;;;;;;;;5082721;28;20048;-74
2022/10/15 14:08:43;;;;;;;10.18;5.65;;;;;;;;;;5071869;28;20040;-71
2022/10/15 14:11:13;;;;;;;10.50;6.25;;;;;;;;;;5086243;28;20041;-70
2022/10/15 14:13:49;;;;;;;10.23;5.90;;;;;;;;;;5092689;28;20048;-71
2022/10/15 14:16:15;;;;;;;7.88;5.60;;;;;;;;;;5057193;28;20056;-70
2022/10/15 14:18:43;;;;;;;8.30;5.50;;;;;;;;;;5071257;28;20043;-70
2022/10/15 14:21:11;;;;;;;7.80;5.15;;;;;;;;;;5074061;28;20066;-68
2022/10/15 14:23:37;;;;;;;9.02;5.18;;;;;;;;;;5070928;28;20048;-68
2022/10/15 14:26:03;;;;;;;7.82;5.18;;;;;;;;;;5070623;28;20088;-69
2022/10/15 14:28:31;;;;;;;8.40;5.20;;;;;;;;;;5073368;28;20040;-70
2022/10/15 14:30:57;;;;;;;9.10;5.47;;;;;;;;;;5071450;28;20044;-68
2022/10/15 14:33:30;;;;;;;9.82;5.18;;;;;;;;;;5072270;28;20110;-72
2022/10/15 14:36:14;;;;;;;8.15;4.60;;;;;;;;;;5072857;28;20047;-69
2022/10/15 14:38:41;;;;;;;7.78;4.65;;;;;;;;;;5072175;28;20044;-73
2022/10/15 14:41:25;;;;;;;8.15;5.10;;;;;;;;;;5071919;28;20494;-73
2022/10/15 14:44:07;;;;;;;6.60;5.10;;;;;;;;;;5071769;28;20056;-71
2022/10/15 14:46:35;;;;;;;8.73;5.32;;;;;;;;;;5075027;28;20083;-72
2022/10/15 14:49:02;;;;;;;6.78;4.93;;;;;;;;;;5078499;28;20060;-71
2022/10/15 14:51:28;;;;;;;9.25;5.20;;;;;;;;;;5080992;28;20052;-71
2022/10/15 14:53:54;;;;;;;8.95;5.32;;;;;;;;;;5076190;28;20122;-72